createdAt,value
2017-12-04T00:00:05.838Z,34.2
2017-12-04T00:02:05.523Z,34.2
2017-12-04T00:04:05.332Z,34.2
2017-12-04T00:06:05.058Z,34.2
2017-12-04T00:08:07.861Z,34.2
2017-12-04T00:10:05.734Z,34.2
2017-12-04T00:12:07.963Z,34
2017-12-04T00:14:05.675Z,34.2
2017-12-04T00:16:05.423Z,34
2017-12-04T00:18:05.374Z,34
2017-12-04T00:20:05.123Z,33.8
2017-12-04T00:22:06.066Z,34
2017-12-04T00:24:05.821Z,34
2017-12-04T00:26:05.544Z,33.9
2017-12-04T00:28:06.072Z,33.9
2017-12-04T00:30:05.828Z,34.2
2017-12-04T00:32:05.492Z,34
2017-12-04T00:34:07.743Z,33.9
2017-12-04T00:36:05.553Z,33.9
2017-12-04T00:38:05.381Z,33.9
2017-12-04T00:40:07.633Z,34
2017-12-04T00:42:05.331Z,34
2017-12-04T00:44:05.180Z,34
2017-12-04T00:46:07.980Z,34
2017-12-04T00:48:05.722Z,34
2017-12-04T00:50:07.976Z,34
2017-12-04T00:52:05.838Z,34
2017-12-04T00:54:08.147Z,33.9
2017-12-04T00:56:05.957Z,33.9
2017-12-04T00:58:05.418Z,34
2017-12-04T01:00:06.173Z,34
2017-12-04T01:02:07.666Z,33.9
2017-12-04T01:04:05.372Z,34
2017-12-04T01:06:07.754Z,34
2017-12-04T01:08:05.481Z,33.9
2017-12-04T01:10:05.180Z,34
2017-12-04T01:12:06.688Z,33.9
2017-12-04T01:14:07.902Z,34
2017-12-04T01:16:10.699Z,34
2017-12-04T01:18:05.171Z,34
2017-12-04T01:20:08.444Z,34
2017-12-04T01:22:05.216Z,34
2017-12-04T01:24:05.956Z,34
2017-12-04T01:26:05.711Z,34
2017-12-04T01:28:05.448Z,34
2017-12-04T01:30:05.378Z,34
2017-12-04T01:32:07.649Z,33.9
2017-12-04T01:34:05.446Z,33.9
2017-12-04T01:36:07.717Z,34
2017-12-04T01:38:13.038Z,34
2017-12-04T01:40:05.757Z,34
2017-12-04T01:42:05.977Z,34
2017-12-04T01:44:05.245Z,34
2017-12-04T01:46:06.003Z,34
2017-12-04T01:48:10.806Z,34.1
2017-12-04T01:50:05.578Z,34.1
2017-12-04T01:52:05.805Z,34.1
2017-12-04T01:54:05.641Z,34
2017-12-04T01:56:05.605Z,34
2017-12-04T01:58:05.322Z,33.9
2017-12-04T02:00:05.086Z,34
2017-12-04T02:02:05.852Z,34
2017-12-04T02:04:08.122Z,33.9
2017-12-04T02:06:05.451Z,33.9
2017-12-04T02:08:05.201Z,34
2017-12-04T02:10:05.898Z,34
2017-12-04T02:12:05.694Z,34
2017-12-04T02:14:08.004Z,34
2017-12-04T02:16:05.750Z,34
2017-12-04T02:18:05.762Z,34
2017-12-04T02:20:08.012Z,34
2017-12-04T02:22:05.759Z,34
2017-12-04T02:24:05.444Z,34.1
2017-12-04T02:26:07.789Z,34
2017-12-04T02:28:08.027Z,34
2017-12-04T02:30:05.783Z,34
2017-12-04T02:32:05.500Z,34
2017-12-04T02:34:05.220Z,33.9
2017-12-04T02:36:05.923Z,34
2017-12-04T02:38:05.643Z,34
2017-12-04T02:40:05.985Z,34
2017-12-04T02:42:05.207Z,34.1
2017-12-04T02:44:13.616Z,34
2017-12-04T02:46:05.564Z,34
2017-12-04T02:48:10.718Z,34
2017-12-04T02:50:05.579Z,34
2017-12-04T02:52:05.874Z,34
2017-12-04T02:54:08.195Z,34
2017-12-04T02:56:08.445Z,34
2017-12-04T02:58:07.647Z,34.1
2017-12-04T03:00:10.919Z,34.1
2017-12-04T03:02:07.685Z,34
2017-12-04T03:04:05.939Z,34.1
2017-12-04T03:06:05.227Z,34
2017-12-04T03:08:05.889Z,34
2017-12-04T03:10:05.703Z,34
2017-12-04T03:12:05.415Z,34
2017-12-04T03:14:05.617Z,33.9
2017-12-04T03:16:05.421Z,34
2017-12-04T03:18:05.884Z,34
2017-12-04T03:20:08.167Z,34.1
2017-12-04T03:22:08.389Z,34.1
2017-12-04T03:24:05.068Z,34.1
2017-12-04T03:26:05.743Z,34.1
2017-12-04T03:28:08.072Z,34
2017-12-04T03:30:05.840Z,34.1
2017-12-04T03:32:05.535Z,34.1
2017-12-04T03:34:05.283Z,34
2017-12-04T03:36:06.025Z,34
2017-12-04T03:38:05.736Z,34.1
2017-12-04T03:40:05.937Z,34.1
2017-12-04T03:42:05.700Z,34
2017-12-04T03:44:05.953Z,34.1
2017-12-04T03:46:05.743Z,34.1
2017-12-04T03:48:05.430Z,34.1
2017-12-04T03:50:10.244Z,34.1
2017-12-04T03:52:13.515Z,34.1
2017-12-04T03:54:07.726Z,34.4
2017-12-04T03:56:15.533Z,34.1
2017-12-04T03:58:07.788Z,34.1
2017-12-04T04:00:05.169Z,34.1
2017-12-04T04:02:05.913Z,34.1
2017-12-04T04:04:05.577Z,34.1
2017-12-04T04:06:05.243Z,34
2017-12-04T04:08:05.991Z,34
2017-12-04T04:10:05.229Z,34.1
2017-12-04T04:12:05.448Z,34.1
2017-12-04T04:14:05.117Z,34.1
2017-12-04T04:16:05.814Z,34.1
2017-12-04T04:18:05.761Z,34.1
2017-12-04T04:20:06.113Z,34.1
2017-12-04T04:22:08.425Z,34.1
2017-12-04T04:24:05.178Z,34.1
2017-12-04T04:26:05.926Z,34.1
2017-12-04T04:28:05.760Z,34.1
2017-12-04T04:30:08.020Z,34.1
2017-12-04T04:32:07.760Z,34.1
2017-12-04T04:34:05.489Z,34.1
2017-12-04T04:36:05.191Z,34.1
2017-12-04T04:38:11.002Z,34.1
2017-12-04T04:40:08.338Z,34.1
2017-12-04T04:42:05.024Z,34.1
2017-12-04T04:44:05.373Z,34.1
2017-12-04T04:46:10.782Z,33.9
2017-12-04T04:48:05.510Z,33.9
2017-12-04T04:50:05.245Z,33.8
2017-12-04T04:52:05.495Z,33.5
2017-12-04T04:54:05.264Z,33.5
2017-12-04T04:56:08.592Z,33.2
2017-12-04T04:58:05.283Z,33.3
2017-12-04T05:00:08.034Z,33.4
2017-12-04T05:02:05.759Z,33.5
2017-12-04T05:04:07.989Z,33.1
2017-12-04T05:06:07.728Z,33.1
2017-12-04T05:08:05.427Z,33.1
2017-12-04T05:10:10.498Z,32.9
2017-12-04T05:12:07.772Z,32.8
2017-12-04T05:14:05.551Z,32.5
2017-12-04T05:16:05.314Z,32.5
2017-12-04T05:18:05.209Z,32.5
2017-12-04T05:20:10.566Z,32.6
2017-12-04T05:22:07.934Z,32.5
2017-12-04T05:24:05.810Z,32.5
2017-12-04T05:26:15.664Z,32.5
2017-12-04T05:28:05.369Z,32.5
2017-12-04T05:30:07.823Z,32.4
2017-12-04T05:32:05.500Z,32.4
2017-12-04T05:34:05.228Z,32.3
2017-12-04T05:36:05.954Z,32.5
2017-12-04T05:38:05.650Z,32.4
2017-12-04T05:40:08.858Z,32.2
2017-12-04T05:42:05.272Z,32.8
2017-12-04T05:44:06.001Z,32.3
2017-12-04T05:46:05.250Z,32.3
2017-12-04T05:48:11.134Z,32.1
2017-12-04T05:50:08.395Z,32.2
2017-12-04T05:52:05.160Z,32.3
2017-12-04T05:54:13.445Z,32.6
2017-12-04T05:56:05.202Z,32.6
2017-12-04T05:58:08.018Z,32.8
2017-12-04T06:00:05.311Z,32.8
2017-12-04T06:02:05.088Z,32.8
2017-12-04T06:04:13.390Z,32.9
2017-12-04T06:06:05.613Z,32.9
2017-12-04T06:08:07.877Z,33
2017-12-04T06:10:05.614Z,33
2017-12-04T06:12:05.345Z,33.2
2017-12-04T06:14:05.071Z,33.2
2017-12-04T06:16:05.987Z,33.2
2017-12-04T06:18:08.416Z,33.7
2017-12-04T06:20:05.210Z,33.5
2017-12-04T06:22:08.003Z,32.7
2017-12-04T06:24:15.844Z,32.1
2017-12-04T06:26:05.068Z,31.9
2017-12-04T06:28:05.322Z,31.9
2017-12-04T06:30:06.059Z,31.6
2017-12-04T06:32:05.784Z,31.9
2017-12-04T06:34:05.241Z,31.7
2017-12-04T06:36:08.546Z,31.9
2017-12-04T06:38:05.468Z,31.8
2017-12-04T06:40:05.302Z,31.9
2017-12-04T06:42:08.103Z,31.9
2017-12-04T06:44:05.869Z,31.9
2017-12-04T06:46:05.632Z,32.1
2017-12-04T06:48:05.313Z,32.2
2017-12-04T06:50:11.114Z,33
2017-12-04T06:52:05.853Z,33
2017-12-04T06:54:05.523Z,33
2017-12-04T06:56:08.256Z,33
2017-12-04T06:58:05.981Z,33
2017-12-04T07:00:08.252Z,33
2017-12-04T07:02:06.008Z,33
2017-12-04T07:04:05.802Z,33
2017-12-04T07:06:06.522Z,33
2017-12-04T07:08:05.253Z,33
2017-12-04T07:10:05.968Z,33.4
2017-12-04T07:12:08.234Z,33.1
2017-12-04T07:14:06.006Z,33.1
2017-12-04T07:16:05.302Z,33.1
2017-12-04T07:18:05.277Z,33.1
2017-12-04T07:20:05.086Z,33.2
2017-12-04T07:22:05.819Z,33
2017-12-04T07:24:05.538Z,33
2017-12-04T07:26:05.346Z,33.2
2017-12-04T07:28:05.617Z,33.2
2017-12-04T07:30:07.830Z,33.4
2017-12-04T07:32:05.025Z,33.4
2017-12-04T07:34:10.781Z,33.4
2017-12-04T07:36:05.591Z,33.4
2017-12-04T07:38:05.311Z,33.4
2017-12-04T07:40:05.721Z,33.6
2017-12-04T07:42:05.526Z,33.6
2017-12-04T07:44:05.241Z,33.7
2017-12-04T07:46:05.973Z,33.6
2017-12-04T07:48:05.743Z,33.6
2017-12-04T07:50:05.539Z,33.5
2017-12-04T07:52:07.794Z,33.4
2017-12-04T07:54:05.127Z,33.5
2017-12-04T07:56:10.535Z,33.5
2017-12-04T07:58:10.363Z,33.6
2017-12-04T08:00:05.075Z,33.6
2017-12-04T08:02:05.761Z,33.5
2017-12-04T08:04:08.027Z,33.6
2017-12-04T08:06:05.692Z,33.6
2017-12-04T08:08:10.989Z,33.6
2017-12-04T08:10:05.307Z,33.6
2017-12-04T08:12:05.516Z,33.6
2017-12-04T08:14:05.472Z,33.6
2017-12-04T08:16:05.216Z,33.6
2017-12-04T08:18:05.158Z,33.2
2017-12-04T08:20:10.954Z,33.3
2017-12-04T08:22:05.922Z,33.3
2017-12-04T08:24:05.197Z,33.3
2017-12-04T08:26:11.043Z,33.3
2017-12-04T08:28:06.077Z,33.3
2017-12-04T08:30:08.304Z,33.5
2017-12-04T08:32:05.995Z,33.5
2017-12-04T08:34:05.906Z,33.4
2017-12-04T08:36:05.718Z,33.5
2017-12-04T08:38:05.450Z,33.4
2017-12-04T08:40:05.225Z,33.5
2017-12-04T08:42:05.928Z,33.5
2017-12-04T08:44:07.783Z,33.5
2017-12-04T08:46:06.060Z,33.5
2017-12-04T08:48:05.758Z,33.6
2017-12-04T08:50:08.519Z,33.5
2017-12-04T08:52:05.271Z,33.5
2017-12-04T08:54:06.108Z,33.4
2017-12-04T08:56:05.896Z,33.5
2017-12-04T08:58:05.639Z,33.5
2017-12-04T09:00:07.899Z,33.5
2017-12-04T09:02:05.116Z,33.5
2017-12-04T09:04:07.882Z,33.5
2017-12-04T09:06:05.534Z,33.4
2017-12-04T09:08:10.844Z,33.5
2017-12-04T09:10:05.696Z,33.5
2017-12-04T09:12:05.960Z,33.3
2017-12-04T09:14:08.222Z,33.5
2017-12-04T09:16:05.951Z,33.5
2017-12-04T09:18:05.887Z,33.6
2017-12-04T09:20:10.175Z,33.4
2017-12-04T09:22:08.421Z,33.6
2017-12-04T09:24:05.166Z,33.6
2017-12-04T09:26:08.384Z,33.6
2017-12-04T09:28:05.132Z,33.6
2017-12-04T09:30:05.876Z,33.6
2017-12-04T09:32:08.102Z,33.6
2017-12-04T09:34:05.824Z,33.6
2017-12-04T09:36:05.543Z,33.6
2017-12-04T09:38:12.826Z,33.6
2017-12-04T09:40:05.537Z,33.6
2017-12-04T09:42:05.268Z,33.5
2017-12-04T09:44:08.502Z,33.4
2017-12-04T09:46:07.758Z,33.6
2017-12-04T09:48:05.457Z,33.6
2017-12-04T09:50:07.751Z,33.6
2017-12-04T09:52:05.505Z,33.6
2017-12-04T09:54:07.748Z,33.6
2017-12-04T09:56:05.976Z,33.6
2017-12-04T09:58:05.879Z,33.6
2017-12-04T10:00:05.624Z,33.6
2017-12-04T10:02:05.881Z,33.6
2017-12-04T10:04:08.126Z,33.6
2017-12-04T10:06:05.333Z,33.6
2017-12-04T10:08:07.668Z,33.7
2017-12-04T10:10:05.365Z,33.7
2017-12-04T10:12:05.051Z,33.8
2017-12-04T10:14:05.766Z,33.8
2017-12-04T10:16:05.509Z,33.8
2017-12-04T10:18:11.020Z,33.8
2017-12-04T10:20:23.754Z,33.8
2017-12-04T10:22:10.115Z,33.8
2017-12-04T10:24:05.834Z,33.8
2017-12-04T10:26:05.701Z,33.8
2017-12-04T10:28:05.434Z,33.8
2017-12-04T10:30:05.101Z,33.8
2017-12-04T10:32:08.383Z,33.8
2017-12-04T10:34:05.174Z,33.8
2017-12-04T10:36:05.995Z,33.7
2017-12-04T10:38:05.791Z,33.8
2017-12-04T10:40:05.061Z,33.8
2017-12-04T10:42:05.776Z,33.7
2017-12-04T10:44:05.472Z,33.8
2017-12-04T10:46:05.264Z,34
2017-12-04T10:48:06.014Z,34
2017-12-04T10:50:05.760Z,34
2017-12-04T10:52:08.090Z,34
2017-12-04T10:54:05.810Z,34
2017-12-04T10:56:05.143Z,34
2017-12-04T10:58:05.971Z,33.9
2017-12-04T11:00:05.739Z,33.9
2017-12-04T11:02:05.992Z,33.9
2017-12-04T11:04:05.357Z,33.9
2017-12-04T11:06:05.147Z,33.9
2017-12-04T11:08:05.839Z,33.9
2017-12-04T11:10:05.537Z,33.9
2017-12-04T11:12:07.844Z,33.8
2017-12-04T11:14:05.569Z,33.7
2017-12-04T11:16:05.360Z,33.9
2017-12-04T11:18:05.291Z,33.8
2017-12-04T11:20:07.570Z,33.9
2017-12-04T11:22:05.886Z,33.9
2017-12-04T11:24:08.290Z,33.8
2017-12-04T11:26:05.533Z,33.8
2017-12-04T11:28:05.277Z,33.7
2017-12-04T11:30:08.534Z,33.9
2017-12-04T11:32:05.264Z,33.8
2017-12-04T11:34:05.950Z,33.8
2017-12-04T11:36:07.763Z,34
2017-12-04T11:38:10.614Z,33.8
2017-12-04T11:40:05.381Z,33.9
2017-12-04T11:42:05.080Z,33.8
2017-12-04T11:44:05.790Z,34
2017-12-04T11:46:13.169Z,33.8
2017-12-04T11:48:05.880Z,33.9
2017-12-04T11:50:08.087Z,34.1
2017-12-04T11:52:05.887Z,34.1
2017-12-04T11:54:05.572Z,34
2017-12-04T11:56:05.275Z,34
2017-12-04T11:58:05.772Z,34
2017-12-04T12:00:13.118Z,34
2017-12-04T12:02:08.345Z,34
2017-12-04T12:04:07.740Z,33.9
2017-12-04T12:06:05.746Z,34
2017-12-04T12:08:05.528Z,33.9
2017-12-04T12:10:07.868Z,34
2017-12-04T12:12:05.656Z,33.9
2017-12-04T12:14:08.659Z,34
2017-12-04T12:16:05.411Z,34
2017-12-04T12:18:07.870Z,33.9
2017-12-04T12:20:10.178Z,33.8
2017-12-04T12:22:10.940Z,33.9
2017-12-04T12:24:05.700Z,33.9
2017-12-04T12:26:08.944Z,34.1
2017-12-04T12:28:06.885Z,33.9
2017-12-04T12:30:05.609Z,34.1
2017-12-04T12:32:10.906Z,33.8
2017-12-04T12:34:10.671Z,33.7
2017-12-04T12:36:05.537Z,33.7
2017-12-04T12:38:05.384Z,34.1
2017-12-04T12:40:05.784Z,34.4
2017-12-04T12:42:05.614Z,33.9
2017-12-04T12:44:05.362Z,33
2017-12-04T12:46:10.235Z,33.3
2017-12-04T12:48:06.019Z,33.4
2017-12-04T12:50:05.720Z,33.7
2017-12-04T12:52:05.947Z,33.5
2017-12-04T12:54:05.095Z,33.8
2017-12-04T12:56:05.901Z,33.9
2017-12-04T12:58:07.684Z,33.9
2017-12-04T13:00:05.403Z,33.9
2017-12-04T13:02:05.128Z,34
2017-12-04T13:04:08.429Z,34.6
2017-12-04T13:06:05.180Z,34.6
2017-12-04T13:08:05.884Z,34.8
2017-12-04T13:10:05.661Z,35.1
2017-12-04T13:12:05.372Z,35.2
2017-12-04T13:14:05.604Z,35.2
2017-12-04T13:16:05.331Z,36.1
2017-12-04T13:18:05.334Z,36.1
2017-12-04T13:20:05.069Z,36
2017-12-04T13:22:05.787Z,35.8
2017-12-04T13:24:05.084Z,35.7
2017-12-04T13:26:05.779Z,36
2017-12-04T13:28:05.224Z,36
2017-12-04T13:30:05.960Z,35.6
2017-12-04T13:32:05.192Z,36.1
2017-12-04T13:34:08.593Z,36.8
2017-12-04T13:36:15.438Z,36.2
2017-12-04T13:38:05.643Z,36.2
2017-12-04T13:40:05.364Z,35.8
2017-12-04T13:42:07.742Z,35.7
2017-12-04T13:44:05.473Z,35.8
2017-12-04T13:46:05.235Z,35.9
2017-12-04T13:48:05.961Z,35.9
2017-12-04T13:50:05.708Z,35.9
2017-12-04T13:52:08.492Z,35.8
2017-12-04T13:54:10.249Z,35.8
2017-12-04T13:56:10.989Z,35.6
2017-12-04T13:58:05.307Z,35.6
2017-12-04T14:00:10.645Z,35.2
2017-12-04T14:02:05.409Z,35.2
2017-12-04T14:04:05.121Z,35.4
2017-12-04T14:06:05.851Z,35.5
2017-12-04T14:08:05.086Z,35.6
2017-12-04T14:10:05.805Z,35.5
2017-12-04T14:12:07.998Z,35.4
2017-12-04T14:14:05.750Z,35.6
2017-12-04T14:16:05.491Z,35.7
2017-12-04T14:18:05.509Z,35.6
2017-12-04T14:20:07.770Z,35.6
2017-12-04T14:22:05.312Z,35.6
2017-12-04T14:24:06.018Z,35.3
2017-12-04T14:26:08.244Z,35.3
2017-12-04T14:28:05.479Z,35.3
2017-12-04T14:30:07.793Z,35.3
2017-12-04T14:32:05.495Z,35.3
2017-12-04T14:34:06.976Z,35.6
2017-12-04T14:36:05.672Z,35.4
2017-12-04T14:38:05.396Z,35.3
2017-12-04T14:40:05.643Z,35.3
2017-12-04T14:42:05.326Z,35.1
2017-12-04T14:44:07.427Z,35.2
2017-12-04T14:46:05.175Z,35.2
2017-12-04T14:48:05.887Z,35.2
2017-12-04T14:50:05.624Z,35.2
2017-12-04T14:52:05.337Z,35.3
2017-12-04T14:54:05.076Z,35
2017-12-04T14:56:05.749Z,35.4
2017-12-04T14:58:07.199Z,35.1
2017-12-04T15:00:06.396Z,35.1
2017-12-04T15:02:08.665Z,35
2017-12-04T15:04:05.576Z,35
2017-12-04T15:06:05.247Z,35
2017-12-04T15:08:05.990Z,35.1
2017-12-04T15:10:05.778Z,35.4
2017-12-04T15:12:05.498Z,35
2017-12-04T15:14:08.374Z,35.1
2017-12-04T15:16:05.329Z,35.2
2017-12-04T15:18:10.317Z,35
2017-12-04T15:20:05.040Z,35.1
2017-12-04T15:22:05.844Z,35.1
2017-12-04T15:24:05.556Z,35.1
2017-12-04T15:26:05.308Z,35.2
2017-12-04T15:28:07.795Z,35
2017-12-04T15:30:05.538Z,35.3
2017-12-04T15:32:05.268Z,35
2017-12-04T15:34:05.974Z,35.3
2017-12-04T15:36:05.687Z,35.3
2017-12-04T15:38:05.932Z,35
2017-12-04T15:40:05.661Z,35.1
2017-12-04T15:42:05.404Z,35.1
2017-12-04T15:44:05.109Z,34.5
2017-12-04T15:46:05.425Z,34.1
2017-12-04T15:48:05.685Z,34.4
2017-12-04T15:50:05.960Z,34.8
2017-12-04T15:52:05.274Z,34.7
2017-12-04T15:54:05.982Z,34.8
2017-12-04T15:56:05.642Z,34.9
2017-12-04T15:58:05.926Z,34.6
2017-12-04T16:00:05.644Z,34.8
2017-12-04T16:02:10.410Z,34.8
2017-12-04T16:04:10.220Z,34.8
2017-12-04T16:06:05.972Z,34.6
2017-12-04T16:08:05.702Z,34.8
2017-12-04T16:10:15.611Z,34.8
2017-12-04T16:12:05.322Z,34.8
2017-12-04T16:14:08.197Z,34.8
2017-12-04T16:16:05.992Z,34.8
2017-12-04T16:18:05.923Z,34.9
2017-12-04T16:20:05.644Z,34.8
2017-12-04T16:22:05.332Z,34.9
2017-12-04T16:24:05.114Z,34.9
2017-12-04T16:26:05.383Z,34.8
2017-12-04T16:28:05.095Z,34.8
2017-12-04T16:30:10.883Z,34.8
2017-12-04T16:32:08.145Z,34.8
2017-12-04T16:34:05.861Z,34.8
2017-12-04T16:36:05.180Z,34.7
2017-12-04T16:38:05.959Z,34.6
2017-12-04T16:40:06.187Z,34.7
2017-12-04T16:42:06.423Z,34.7
2017-12-04T16:44:05.240Z,34.7
2017-12-04T16:46:05.508Z,34.7
2017-12-04T16:48:05.283Z,34.6
2017-12-04T16:50:09.726Z,34.6
2017-12-04T16:52:05.488Z,34.6
2017-12-04T16:54:05.729Z,34.6
2017-12-04T16:56:08.489Z,34.6
2017-12-04T16:58:10.292Z,34.6
2017-12-04T17:00:05.007Z,34.6
2017-12-04T17:02:08.260Z,34.4
2017-12-04T17:04:06.028Z,34.4
2017-12-04T17:06:05.734Z,34.6
2017-12-04T17:08:05.521Z,34.6
2017-12-04T17:10:05.193Z,34.6
2017-12-04T17:12:05.136Z,34.6
2017-12-04T17:14:10.889Z,34.5
2017-12-04T17:16:05.701Z,34.6
2017-12-04T17:18:05.594Z,34.6
2017-12-04T17:20:05.528Z,34.6
2017-12-04T17:22:05.228Z,34.6
2017-12-04T17:24:06.938Z,34.5
2017-12-04T17:26:09.091Z,34.6
2017-12-04T17:28:05.454Z,34.6
2017-12-04T17:30:05.172Z,34.6
2017-12-04T17:32:05.873Z,34.6
2017-12-04T17:34:05.602Z,34.5
2017-12-04T17:36:05.372Z,34.6
2017-12-04T17:38:05.098Z,34.6
2017-12-04T17:40:05.774Z,34.6
2017-12-04T17:42:11.259Z,34.6
2017-12-04T17:44:11.090Z,34.5
2017-12-04T17:46:07.845Z,34.7
2017-12-04T17:48:05.538Z,34.4
2017-12-04T17:50:07.840Z,34.6
2017-12-04T17:52:05.542Z,34.4
2017-12-04T17:54:07.807Z,34.5
2017-12-04T17:56:05.046Z,34.5
2017-12-04T17:58:06.527Z,34.6
2017-12-04T18:00:06.504Z,34.1
2017-12-04T18:02:06.490Z,34.5
2017-12-04T18:04:07.096Z,34
2017-12-04T18:06:17.124Z,34.4
2017-12-04T18:08:08.395Z,33.9
2017-12-04T18:10:07.680Z,34.9
2017-12-04T18:12:13.028Z,35.5
2017-12-04T18:14:07.037Z,35.3
2017-12-04T18:16:05.214Z,35.1
2017-12-04T18:18:05.096Z,34.7
2017-12-04T18:20:05.882Z,34.8
2017-12-04T18:22:05.765Z,34.6
2017-12-04T18:24:05.493Z,34.5
2017-12-04T18:26:16.341Z,34.3
2017-12-04T18:28:05.246Z,34.3
2017-12-04T18:30:05.975Z,34.2
2017-12-04T18:32:05.688Z,34.3
2017-12-04T18:34:05.903Z,34.5
2017-12-04T18:36:10.725Z,34.4
2017-12-04T18:38:05.461Z,34.3
2017-12-04T18:40:05.190Z,34.4
2017-12-04T18:42:07.989Z,34.2
2017-12-04T18:44:12.855Z,34.3
2017-12-04T18:46:05.542Z,34.3
2017-12-04T18:48:07.829Z,30
2017-12-04T18:50:05.581Z,30
2017-12-04T18:52:05.412Z,30
2017-12-04T18:54:05.161Z,29.8
2017-12-04T18:56:08.395Z,29.9
2017-12-04T18:58:05.119Z,29.9
2017-12-04T19:00:05.919Z,29.9
2017-12-04T19:02:08.181Z,29.9
2017-12-04T19:04:05.900Z,29.9
2017-12-04T19:06:05.664Z,29.9
2017-12-04T19:08:13.101Z,30
2017-12-04T19:10:05.874Z,29.9
2017-12-04T19:12:08.111Z,30
2017-12-04T19:14:05.347Z,30
2017-12-04T19:16:12.670Z,30
2017-12-04T19:18:05.619Z,29.8
2017-12-04T19:20:13.442Z,30
2017-12-04T19:22:10.200Z,30
2017-12-04T19:24:12.611Z,30
2017-12-04T19:26:05.298Z,30.1
2017-12-04T19:28:05.111Z,30.1
2017-12-04T19:30:05.866Z,30.1
2017-12-04T19:32:05.669Z,29.9
2017-12-04T19:34:05.936Z,30
2017-12-04T19:36:05.663Z,29.9
2017-12-04T19:38:05.382Z,30
2017-12-04T19:40:05.104Z,30
2017-12-04T19:42:10.901Z,29.9
2017-12-04T19:44:05.666Z,29.9
2017-12-04T19:46:05.397Z,30
2017-12-04T19:48:08.180Z,30.6
2017-12-04T19:50:05.882Z,30.2
2017-12-04T19:52:05.607Z,30
2017-12-04T19:54:05.352Z,30.1
2017-12-04T19:56:05.057Z,30.5
2017-12-04T19:58:05.320Z,30.6
2017-12-04T20:00:12.298Z,30.2
2017-12-04T20:02:05.475Z,30.3
2017-12-04T20:04:05.166Z,30.5
2017-12-04T20:06:05.879Z,30.6
2017-12-04T20:08:05.204Z,30.5
2017-12-04T20:10:05.939Z,30.2
2017-12-04T20:12:05.632Z,30
2017-12-04T20:14:05.312Z,30.1
2017-12-04T20:16:06.036Z,30.1
2017-12-04T20:18:05.497Z,30.2
2017-12-04T20:20:05.443Z,30.1
2017-12-04T20:22:05.146Z,30.1
2017-12-04T20:24:05.842Z,30.1
2017-12-04T20:26:10.625Z,30.1
2017-12-04T20:28:05.930Z,30.1
2017-12-04T20:30:05.824Z,30.1
2017-12-04T20:32:07.812Z,30.1
2017-12-04T20:34:10.670Z,30.1
2017-12-04T20:36:05.424Z,30.1
2017-12-04T20:38:05.340Z,30.3
2017-12-04T20:40:05.614Z,30.1
2017-12-04T20:42:08.831Z,30
2017-12-04T20:44:13.319Z,30.2
2017-12-04T20:46:05.086Z,30.2
2017-12-04T20:48:05.265Z,30.7
2017-12-04T20:50:05.976Z,30.4
2017-12-04T20:52:06.467Z,30.7
2017-12-04T20:54:05.448Z,30.3
2017-12-04T20:56:05.174Z,30.4
2017-12-04T20:58:06.958Z,30.6
2017-12-04T21:00:13.531Z,30.4
2017-12-04T21:02:05.587Z,30.4
2017-12-04T21:04:06.576Z,30.5
2017-12-04T21:06:05.499Z,30.5
2017-12-04T21:08:10.143Z,30.5
2017-12-04T21:10:13.009Z,30.7
2017-12-04T21:12:06.559Z,30.6
2017-12-04T21:14:05.203Z,30.4
2017-12-04T21:16:10.347Z,30.4
2017-12-04T21:18:06.691Z,30.5
2017-12-04T21:20:16.191Z,30.4
2017-12-04T21:22:12.321Z,30.4
2017-12-04T21:24:08.217Z,30
2017-12-04T21:26:11.365Z,30.2
2017-12-04T21:28:05.041Z,30.1
2017-12-04T21:30:05.423Z,30.1
2017-12-04T21:32:16.108Z,30.2
2017-12-04T21:34:06.279Z,30
2017-12-04T21:36:05.315Z,30.2
2017-12-04T21:38:05.929Z,30.3
2017-12-04T21:40:05.871Z,30.2
2017-12-04T21:42:08.801Z,30.4
2017-12-04T21:46:05.221Z,30.1
2017-12-04T21:48:05.770Z,30.1
2017-12-04T21:50:05.750Z,30.2
2017-12-04T21:52:05.483Z,30
2017-12-04T21:54:05.813Z,30.3
2017-12-04T21:56:05.571Z,30.2
2017-12-04T21:58:05.253Z,30
2017-12-04T22:00:06.203Z,30.2
2017-12-04T22:02:05.720Z,30.2
2017-12-04T22:04:05.621Z,30
2017-12-04T22:06:05.415Z,30
2017-12-04T22:08:05.176Z,30
2017-12-04T22:10:05.882Z,30
2017-12-04T22:12:05.643Z,30
2017-12-04T22:14:10.688Z,30.2
2017-12-04T22:16:18.084Z,30.1
2017-12-04T22:18:06.070Z,30
2017-12-04T22:20:05.321Z,30.2
2017-12-04T22:22:05.028Z,30.2
2017-12-04T22:24:05.896Z,30
2017-12-04T22:26:05.102Z,30.3
2017-12-04T22:28:10.894Z,30.4
2017-12-04T22:30:05.121Z,30.4
2017-12-04T22:32:05.897Z,30.7
2017-12-04T22:34:07.700Z,30.1
2017-12-04T22:36:07.981Z,30
2017-12-04T22:38:15.396Z,30
2017-12-04T22:40:06.050Z,30
2017-12-04T22:42:05.872Z,30.3
2017-12-04T22:44:05.640Z,30.6
2017-12-04T22:46:05.425Z,30.6
2017-12-04T22:48:05.140Z,30.5
2017-12-04T22:50:10.940Z,30
2017-12-04T22:52:05.633Z,30
2017-12-04T22:54:05.575Z,30
2017-12-04T22:56:07.842Z,29.7
2017-12-04T22:58:08.155Z,30.3
2017-12-04T23:00:05.905Z,30.3
2017-12-04T23:02:06.342Z,30.1
2017-12-04T23:04:05.031Z,30.1
2017-12-04T23:06:05.861Z,30
2017-12-04T23:08:05.578Z,30
2017-12-04T23:10:05.288Z,29.9
2017-12-04T23:12:05.280Z,30
2017-12-04T23:14:05.987Z,30
2017-12-04T23:16:07.794Z,29.9
2017-12-04T23:18:06.747Z,29.8
2017-12-04T23:20:05.706Z,30
2017-12-04T23:22:06.130Z,29.7
2017-12-04T23:24:05.109Z,30
2017-12-04T23:26:07.865Z,29.8
2017-12-04T23:28:08.098Z,29.8
2017-12-04T23:30:05.942Z,29.7
2017-12-04T23:32:08.228Z,29.8
2017-12-04T23:34:05.966Z,29.8
2017-12-04T23:36:12.817Z,29.9
2017-12-04T23:38:06.637Z,29.7
2017-12-04T23:40:06.388Z,29.6
2017-12-04T23:42:05.304Z,29.5
2017-12-04T23:44:06.090Z,29.5
2017-12-04T23:46:05.810Z,29.6
2017-12-04T23:48:08.114Z,29.7
2017-12-04T23:50:05.854Z,29.7
2017-12-04T23:52:05.778Z,29.5
2017-12-04T23:54:05.503Z,29.6
2017-12-04T23:56:07.804Z,29.5
2017-12-04T23:58:05.541Z,29.5
